sensor_id;sensor_type;location;lat;lon;timestamp;P1;durP1;ratioP1;P2;durP2;ratioP2
12042;SDS011;6082;49.306;12.862;2023-05-07T00:01:15;8.40;;;6.40;;
12042;SDS011;6082;49.306;12.862;2023-05-07T00:03:41;10.00;;;6.50;;
12042;SDS011;6082;49.306;12.862;2023-05-07T00:06:07;10.30;;;6.40;;
12042;SDS011;6082;49.306;12.862;2023-05-07T00:08:33;8.77;;;6.23;;
12042;SDS011;6082;49.306;12.862;2023-05-07T00:10:59;8.57;;;5.97;;
12042;SDS011;6082;49.306;12.862;2023-05-07T00:13:25;9.90;;;6.10;;
12042;SDS011;6082;49.306;12.862;2023-05-07T00:15:52;11.20;;;6.67;;
12042;SDS011;6082;49.306;12.862;2023-05-07T00:18:18;8.63;;;5.77;;
12042;SDS011;6082;49.306;12.862;2023-05-07T00:20:47;9.60;;;6.20;;
12042;SDS011;6082;49.306;12.862;2023-05-07T00:23:13;10.47;;;6.20;;
12042;SDS011;6082;49.306;12.862;2023-05-07T00:25:39;10.13;;;6.50;;
12042;SDS011;6082;49.306;12.862;2023-05-07T00:28:05;10.07;;;6.27;;
12042;SDS011;6082;49.306;12.862;2023-05-07T00:30:31;9.50;;;6.57;;
12042;SDS011;6082;49.306;12.862;2023-05-07T00:32:57;10.60;;;7.07;;
12042;SDS011;6082;49.306;12.862;2023-05-07T00:35:23;10.63;;;7.07;;
12042;SDS011;6082;49.306;12.862;2023-05-07T00:37:50;9.87;;;6.93;;
12042;SDS011;6082;49.306;12.862;2023-05-07T00:40:16;9.27;;;7.03;;
12042;SDS011;6082;49.306;12.862;2023-05-07T00:42:42;8.80;;;6.13;;
12042;SDS011;6082;49.306;12.862;2023-05-07T00:45:12;9.80;;;6.50;;
12042;SDS011;6082;49.306;12.862;2023-05-07T00:47:38;11.27;;;7.93;;
12042;SDS011;6082;49.306;12.862;2023-05-07T00:50:04;10.37;;;6.70;;
12042;SDS011;6082;49.306;12.862;2023-05-07T00:52:31;12.10;;;7.63;;
12042;SDS011;6082;49.306;12.862;2023-05-07T00:54:57;10.60;;;6.60;;
12042;SDS011;6082;49.306;12.862;2023-05-07T00:57:23;9.20;;;6.30;;
12042;SDS011;6082;49.306;12.862;2023-05-07T00:59:51;10.33;;;7.27;;
12042;SDS011;6082;49.306;12.862;2023-05-07T01:02:17;9.40;;;6.63;;
12042;SDS011;6082;49.306;12.862;2023-05-07T01:04:43;11.43;;;7.20;;
12042;SDS011;6082;49.306;12.862;2023-05-07T01:07:09;10.70;;;7.33;;
12042;SDS011;6082;49.306;12.862;2023-05-07T01:09:35;12.97;;;7.77;;
12042;SDS011;6082;49.306;12.862;2023-05-07T01:12:02;14.10;;;6.80;;
12042;SDS011;6082;49.306;12.862;2023-05-07T01:14:29;11.83;;;7.70;;
12042;SDS011;6082;49.306;12.862;2023-05-07T01:16:55;12.37;;;7.57;;
12042;SDS011;6082;49.306;12.862;2023-05-07T01:19:22;9.93;;;7.03;;
12042;SDS011;6082;49.306;12.862;2023-05-07T01:21:48;11.00;;;7.27;;
12042;SDS011;6082;49.306;12.862;2023-05-07T01:24:14;10.37;;;6.73;;
12042;SDS011;6082;49.306;12.862;2023-05-07T01:26:42;11.37;;;7.00;;
12042;SDS011;6082;49.306;12.862;2023-05-07T01:29:08;8.87;;;7.33;;
12042;SDS011;6082;49.306;12.862;2023-05-07T01:31:34;10.00;;;6.80;;
12042;SDS011;6082;49.306;12.862;2023-05-07T01:34:02;11.37;;;7.07;;
12042;SDS011;6082;49.306;12.862;2023-05-07T01:36:29;11.50;;;7.30;;
12042;SDS011;6082;49.306;12.862;2023-05-07T01:38:56;11.00;;;6.87;;
12042;SDS011;6082;49.306;12.862;2023-05-07T01:41:22;10.13;;;6.90;;
12042;SDS011;6082;49.306;12.862;2023-05-07T01:43:49;10.50;;;7.03;;
12042;SDS011;6082;49.306;12.862;2023-05-07T01:46:16;8.97;;;6.20;;
12042;SDS011;6082;49.306;12.862;2023-05-07T01:48:43;12.70;;;6.77;;
12042;SDS011;6082;49.306;12.862;2023-05-07T01:51:11;11.27;;;6.97;;
12042;SDS011;6082;49.306;12.862;2023-05-07T01:53:38;12.43;;;7.33;;
12042;SDS011;6082;49.306;12.862;2023-05-07T01:56:04;11.27;;;6.93;;
12042;SDS011;6082;49.306;12.862;2023-05-07T01:58:30;13.87;;;7.30;;
12042;SDS011;6082;49.306;12.862;2023-05-07T02:00:56;10.33;;;7.17;;
12042;SDS011;6082;49.306;12.862;2023-05-07T02:03:22;11.60;;;6.73;;
12042;SDS011;6082;49.306;12.862;2023-05-07T02:05:49;10.00;;;6.90;;
12042;SDS011;6082;49.306;12.862;2023-05-07T02:08:15;12.37;;;7.30;;
12042;SDS011;6082;49.306;12.862;2023-05-07T02:10:41;10.40;;;6.83;;
12042;SDS011;6082;49.306;12.862;2023-05-07T02:13:07;12.37;;;7.73;;
12042;SDS011;6082;49.306;12.862;2023-05-07T02:15:33;12.20;;;7.70;;
12042;SDS011;6082;49.306;12.862;2023-05-07T02:20:25;11.43;;;7.20;;
12042;SDS011;6082;49.306;12.862;2023-05-07T02:22:51;13.90;;;7.03;;
12042;SDS011;6082;49.306;12.862;2023-05-07T02:25:17;11.67;;;7.43;;
12042;SDS011;6082;49.306;12.862;2023-05-07T02:27:43;11.97;;;7.03;;
12042;SDS011;6082;49.306;12.862;2023-05-07T02:30:10;12.53;;;7.43;;
12042;SDS011;6082;49.306;12.862;2023-05-07T02:32:36;10.20;;;7.07;;
12042;SDS011;6082;49.306;12.862;2023-05-07T02:35:02;11.87;;;7.53;;
12042;SDS011;6082;49.306;12.862;2023-05-07T02:37:28;14.60;;;8.03;;
12042;SDS011;6082;49.306;12.862;2023-05-07T02:39:54;11.67;;;7.60;;
12042;SDS011;6082;49.306;12.862;2023-05-07T02:42:20;13.50;;;7.23;;
12042;SDS011;6082;49.306;12.862;2023-05-07T02:44:46;14.63;;;8.07;;
12042;SDS011;6082;49.306;12.862;2023-05-07T02:47:13;12.33;;;7.10;;
12042;SDS011;6082;49.306;12.862;2023-05-07T02:49:40;11.93;;;7.43;;
12042;SDS011;6082;49.306;12.862;2023-05-07T02:52:06;10.40;;;7.27;;
12042;SDS011;6082;49.306;12.862;2023-05-07T02:54:32;11.93;;;7.93;;
12042;SDS011;6082;49.306;12.862;2023-05-07T02:56:58;13.87;;;7.70;;
12042;SDS011;6082;49.306;12.862;2023-05-07T02:59:26;11.53;;;7.00;;
12042;SDS011;6082;49.306;12.862;2023-05-07T03:01:52;11.50;;;7.40;;
12042;SDS011;6082;49.306;12.862;2023-05-07T03:04:18;11.03;;;7.30;;
12042;SDS011;6082;49.306;12.862;2023-05-07T03:06:45;12.37;;;8.13;;
12042;SDS011;6082;49.306;12.862;2023-05-07T03:09:11;12.87;;;8.17;;
12042;SDS011;6082;49.306;12.862;2023-05-07T03:11:37;11.77;;;7.77;;
12042;SDS011;6082;49.306;12.862;2023-05-07T03:14:03;13.70;;;8.13;;
12042;SDS011;6082;49.306;12.862;2023-05-07T03:16:29;13.93;;;8.60;;
12042;SDS011;6082;49.306;12.862;2023-05-07T03:18:56;13.17;;;8.03;;
12042;SDS011;6082;49.306;12.862;2023-05-07T03:21:22;14.63;;;8.57;;
12042;SDS011;6082;49.306;12.862;2023-05-07T03:23:48;15.80;;;9.40;;
12042;SDS011;6082;49.306;12.862;2023-05-07T03:26:14;13.87;;;9.17;;
12042;SDS011;6082;49.306;12.862;2023-05-07T03:28:40;14.00;;;8.43;;
12042;SDS011;6082;49.306;12.862;2023-05-07T03:31:06;12.03;;;8.13;;
12042;SDS011;6082;49.306;12.862;2023-05-07T03:33:35;16.63;;;8.80;;
12042;SDS011;6082;49.306;12.862;2023-05-07T03:36:05;13.90;;;9.37;;
12042;SDS011;6082;49.306;12.862;2023-05-07T03:38:31;12.20;;;8.70;;
12042;SDS011;6082;49.306;12.862;2023-05-07T03:40:57;12.33;;;8.10;;
12042;SDS011;6082;49.306;12.862;2023-05-07T03:43:23;16.43;;;9.47;;
12042;SDS011;6082;49.306;12.862;2023-05-07T03:45:49;14.93;;;8.90;;
12042;SDS011;6082;49.306;12.862;2023-05-07T03:48:15;16.20;;;8.90;;
12042;SDS011;6082;49.306;12.862;2023-05-07T03:50:41;14.30;;;9.27;;
12042;SDS011;6082;49.306;12.862;2023-05-07T03:53:07;13.47;;;9.13;;
12042;SDS011;6082;49.306;12.862;2023-05-07T03:55:33;15.67;;;9.13;;
12042;SDS011;6082;49.306;12.862;2023-05-07T03:58:00;13.67;;;8.43;;
12042;SDS011;6082;49.306;12.862;2023-05-07T04:00:26;13.43;;;8.97;;
12042;SDS011;6082;49.306;12.862;2023-05-07T04:02:52;13.43;;;8.37;;
12042;SDS011;6082;49.306;12.862;2023-05-07T04:05:18;13.77;;;9.00;;
12042;SDS011;6082;49.306;12.862;2023-05-07T04:07:44;11.93;;;8.37;;
12042;SDS011;6082;49.306;12.862;2023-05-07T04:10:14;13.83;;;9.03;;
12042;SDS011;6082;49.306;12.862;2023-05-07T04:12:40;13.47;;;8.77;;
12042;SDS011;6082;49.306;12.862;2023-05-07T04:15:06;13.53;;;8.33;;
12042;SDS011;6082;49.306;12.862;2023-05-07T04:17:32;14.67;;;9.30;;
12042;SDS011;6082;49.306;12.862;2023-05-07T04:19:58;14.17;;;8.53;;
12042;SDS011;6082;49.306;12.862;2023-05-07T04:22:24;15.13;;;10.17;;
12042;SDS011;6082;49.306;12.862;2023-05-07T04:24:50;13.67;;;9.07;;
12042;SDS011;6082;49.306;12.862;2023-05-07T04:27:16;12.87;;;8.60;;
12042;SDS011;6082;49.306;12.862;2023-05-07T04:29:43;14.33;;;9.43;;
12042;SDS011;6082;49.306;12.862;2023-05-07T04:32:12;15.70;;;9.43;;
12042;SDS011;6082;49.306;12.862;2023-05-07T04:34:38;15.63;;;10.00;;
12042;SDS011;6082;49.306;12.862;2023-05-07T04:37:04;16.40;;;9.17;;
12042;SDS011;6082;49.306;12.862;2023-05-07T04:39:30;18.80;;;9.83;;
12042;SDS011;6082;49.306;12.862;2023-05-07T04:41:56;16.63;;;10.17;;
12042;SDS011;6082;49.306;12.862;2023-05-07T04:44:22;17.60;;;10.17;;
12042;SDS011;6082;49.306;12.862;2023-05-07T04:46:49;21.40;;;11.47;;
12042;SDS011;6082;49.306;12.862;2023-05-07T04:49:16;20.53;;;11.03;;
12042;SDS011;6082;49.306;12.862;2023-05-07T04:51:42;21.03;;;11.73;;
12042;SDS011;6082;49.306;12.862;2023-05-07T04:54:08;18.73;;;10.67;;
12042;SDS011;6082;49.306;12.862;2023-05-07T04:56:34;18.77;;;11.10;;
12042;SDS011;6082;49.306;12.862;2023-05-07T04:59:09;20.90;;;11.80;;
12042;SDS011;6082;49.306;12.862;2023-05-07T05:01:35;23.07;;;11.77;;
12042;SDS011;6082;49.306;12.862;2023-05-07T05:04:01;20.20;;;11.30;;
12042;SDS011;6082;49.306;12.862;2023-05-07T05:06:27;23.93;;;11.83;;
12042;SDS011;6082;49.306;12.862;2023-05-07T05:08:53;22.10;;;12.00;;
12042;SDS011;6082;49.306;12.862;2023-05-07T05:11:19;23.03;;;11.47;;
12042;SDS011;6082;49.306;12.862;2023-05-07T05:13:45;21.90;;;12.43;;
12042;SDS011;6082;49.306;12.862;2023-05-07T05:16:14;22.60;;;12.00;;
12042;SDS011;6082;49.306;12.862;2023-05-07T05:18:40;20.70;;;12.07;;
12042;SDS011;6082;49.306;12.862;2023-05-07T05:21:06;23.13;;;11.77;;
12042;SDS011;6082;49.306;12.862;2023-05-07T05:23:33;19.33;;;11.30;;
12042;SDS011;6082;49.306;12.862;2023-05-07T05:25:59;22.07;;;12.13;;
12042;SDS011;6082;49.306;12.862;2023-05-07T05:28:28;23.97;;;12.37;;
12042;SDS011;6082;49.306;12.862;2023-05-07T05:30:54;19.10;;;11.93;;
12042;SDS011;6082;49.306;12.862;2023-05-07T05:33:21;21.50;;;12.23;;
12042;SDS011;6082;49.306;12.862;2023-05-07T05:35:47;17.83;;;10.97;;
12042;SDS011;6082;49.306;12.862;2023-05-07T05:38:13;21.80;;;11.80;;
12042;SDS011;6082;49.306;12.862;2023-05-07T05:40:39;23.13;;;12.57;;
12042;SDS011;6082;49.306;12.862;2023-05-07T05:43:05;22.00;;;12.70;;
12042;SDS011;6082;49.306;12.862;2023-05-07T05:45:31;20.53;;;11.67;;
12042;SDS011;6082;49.306;12.862;2023-05-07T05:47:57;24.33;;;12.40;;
12042;SDS011;6082;49.306;12.862;2023-05-07T05:50:24;20.23;;;11.87;;
12042;SDS011;6082;49.306;12.862;2023-05-07T05:52:50;17.97;;;11.87;;
12042;SDS011;6082;49.306;12.862;2023-05-07T05:55:16;22.70;;;12.17;;
12042;SDS011;6082;49.306;12.862;2023-05-07T05:57:42;22.77;;;12.43;;
12042;SDS011;6082;49.306;12.862;2023-05-07T06:00:08;22.30;;;12.60;;
12042;SDS011;6082;49.306;12.862;2023-05-07T06:02:34;24.77;;;12.80;;
12042;SDS011;6082;49.306;12.862;2023-05-07T06:05:01;18.80;;;12.13;;
12042;SDS011;6082;49.306;12.862;2023-05-07T06:07:27;22.83;;;12.63;;
12042;SDS011;6082;49.306;12.862;2023-05-07T06:09:53;21.27;;;12.00;;
12042;SDS011;6082;49.306;12.862;2023-05-07T06:12:20;21.73;;;12.67;;
12042;SDS011;6082;49.306;12.862;2023-05-07T06:14:46;23.87;;;13.20;;
12042;SDS011;6082;49.306;12.862;2023-05-07T06:17:12;23.27;;;13.63;;
12042;SDS011;6082;49.306;12.862;2023-05-07T06:19:38;22.80;;;11.70;;
12042;SDS011;6082;49.306;12.862;2023-05-07T06:22:04;22.67;;;12.10;;
12042;SDS011;6082;49.306;12.862;2023-05-07T06:24:30;19.27;;;11.77;;
12042;SDS011;6082;49.306;12.862;2023-05-07T06:26:56;19.07;;;11.77;;
12042;SDS011;6082;49.306;12.862;2023-05-07T06:29:23;20.07;;;11.60;;
12042;SDS011;6082;49.306;12.862;2023-05-07T06:31:52;21.87;;;12.70;;
12042;SDS011;6082;49.306;12.862;2023-05-07T06:34:18;26.57;;;13.10;;
12042;SDS011;6082;49.306;12.862;2023-05-07T06:36:44;22.67;;;12.23;;
12042;SDS011;6082;49.306;12.862;2023-05-07T06:39:10;21.00;;;11.93;;
12042;SDS011;6082;49.306;12.862;2023-05-07T06:41:37;20.40;;;11.73;;
12042;SDS011;6082;49.306;12.862;2023-05-07T06:44:03;23.17;;;12.80;;
12042;SDS011;6082;49.306;12.862;2023-05-07T06:46:30;21.47;;;11.67;;
12042;SDS011;6082;49.306;12.862;2023-05-07T06:48:56;18.47;;;12.30;;
12042;SDS011;6082;49.306;12.862;2023-05-07T06:51:22;19.80;;;11.73;;
12042;SDS011;6082;49.306;12.862;2023-05-07T06:53:48;23.70;;;12.50;;
12042;SDS011;6082;49.306;12.862;2023-05-07T06:56:14;17.90;;;11.73;;
12042;SDS011;6082;49.306;12.862;2023-05-07T06:58:44;21.27;;;11.97;;
12042;SDS011;6082;49.306;12.862;2023-05-07T07:01:10;19.93;;;10.77;;
12042;SDS011;6082;49.306;12.862;2023-05-07T07:03:36;17.50;;;12.07;;
12042;SDS011;6082;49.306;12.862;2023-05-07T07:06:02;19.13;;;11.57;;
12042;SDS011;6082;49.306;12.862;2023-05-07T07:08:28;20.47;;;12.00;;
12042;SDS011;6082;49.306;12.862;2023-05-07T07:10:54;17.70;;;11.07;;
12042;SDS011;6082;49.306;12.862;2023-05-07T07:13:20;18.20;;;11.30;;
12042;SDS011;6082;49.306;12.862;2023-05-07T07:15:46;16.70;;;11.10;;
12042;SDS011;6082;49.306;12.862;2023-05-07T07:18:12;21.40;;;12.10;;
12042;SDS011;6082;49.306;12.862;2023-05-07T07:20:38;19.53;;;11.30;;
12042;SDS011;6082;49.306;12.862;2023-05-07T07:23:04;19.13;;;10.80;;
12042;SDS011;6082;49.306;12.862;2023-05-07T07:25:31;21.33;;;11.83;;
12042;SDS011;6082;49.306;12.862;2023-05-07T07:27:57;21.47;;;11.47;;
12042;SDS011;6082;49.306;12.862;2023-05-07T07:30:23;20.37;;;12.03;;
12042;SDS011;6082;49.306;12.862;2023-05-07T07:32:49;20.20;;;12.37;;
12042;SDS011;6082;49.306;12.862;2023-05-07T07:35:16;21.50;;;11.13;;
12042;SDS011;6082;49.306;12.862;2023-05-07T07:37:42;20.50;;;11.93;;
12042;SDS011;6082;49.306;12.862;2023-05-07T07:40:08;19.97;;;12.07;;
12042;SDS011;6082;49.306;12.862;2023-05-07T07:42:35;23.97;;;13.57;;
12042;SDS011;6082;49.306;12.862;2023-05-07T07:45:01;23.27;;;11.73;;
12042;SDS011;6082;49.306;12.862;2023-05-07T07:47:27;21.23;;;11.77;;
12042;SDS011;6082;49.306;12.862;2023-05-07T07:49:53;22.73;;;12.53;;
12042;SDS011;6082;49.306;12.862;2023-05-07T07:52:20;21.57;;;12.43;;
12042;SDS011;6082;49.306;12.862;2023-05-07T07:54:46;20.67;;;12.70;;
12042;SDS011;6082;49.306;12.862;2023-05-07T07:57:12;21.53;;;12.33;;
12042;SDS011;6082;49.306;12.862;2023-05-07T07:59:38;23.53;;;13.10;;
12042;SDS011;6082;49.306;12.862;2023-05-07T08:02:05;17.80;;;11.57;;
12042;SDS011;6082;49.306;12.862;2023-05-07T08:04:31;22.07;;;11.93;;
12042;SDS011;6082;49.306;12.862;2023-05-07T08:06:58;21.43;;;11.63;;
12042;SDS011;6082;49.306;12.862;2023-05-07T08:09:24;23.20;;;12.73;;
12042;SDS011;6082;49.306;12.862;2023-05-07T08:11:50;22.50;;;12.17;;
12042;SDS011;6082;49.306;12.862;2023-05-07T08:14:16;20.30;;;12.20;;
12042;SDS011;6082;49.306;12.862;2023-05-07T08:16:42;20.57;;;11.87;;
12042;SDS011;6082;49.306;12.862;2023-05-07T08:19:08;20.23;;;12.13;;
12042;SDS011;6082;49.306;12.862;2023-05-07T08:21:38;19.50;;;11.57;;
12042;SDS011;6082;49.306;12.862;2023-05-07T08:24:04;20.10;;;12.17;;
12042;SDS011;6082;49.306;12.862;2023-05-07T08:26:30;21.07;;;12.00;;
12042;SDS011;6082;49.306;12.862;2023-05-07T08:28:56;21.27;;;11.83;;
12042;SDS011;6082;49.306;12.862;2023-05-07T08:31:22;21.30;;;12.23;;
12042;SDS011;6082;49.306;12.862;2023-05-07T08:33:49;19.53;;;12.20;;
12042;SDS011;6082;49.306;12.862;2023-05-07T08:36:15;22.53;;;12.50;;
12042;SDS011;6082;49.306;12.862;2023-05-07T08:38:44;23.30;;;12.00;;
12042;SDS011;6082;49.306;12.862;2023-05-07T08:41:10;21.17;;;11.67;;
12042;SDS011;6082;49.306;12.862;2023-05-07T08:43:36;21.20;;;11.63;;
12042;SDS011;6082;49.306;12.862;2023-05-07T08:46:03;21.10;;;11.90;;
12042;SDS011;6082;49.306;12.862;2023-05-07T08:48:30;23.23;;;11.97;;
12042;SDS011;6082;49.306;12.862;2023-05-07T08:50:57;20.97;;;12.37;;
12042;SDS011;6082;49.306;12.862;2023-05-07T08:53:23;19.47;;;11.33;;
12042;SDS011;6082;49.306;12.862;2023-05-07T08:55:50;20.87;;;11.73;;
12042;SDS011;6082;49.306;12.862;2023-05-07T08:58:17;18.87;;;11.77;;
12042;SDS011;6082;49.306;12.862;2023-05-07T09:00:43;18.30;;;10.97;;
12042;SDS011;6082;49.306;12.862;2023-05-07T09:03:09;21.80;;;11.80;;
12042;SDS011;6082;49.306;12.862;2023-05-07T09:05:39;22.10;;;11.50;;
12042;SDS011;6082;49.306;12.862;2023-05-07T09:08:06;20.60;;;12.00;;
12042;SDS011;6082;49.306;12.862;2023-05-07T09:10:35;19.97;;;11.60;;
12042;SDS011;6082;49.306;12.862;2023-05-07T09:13:02;21.43;;;11.83;;
12042;SDS011;6082;49.306;12.862;2023-05-07T09:15:28;17.27;;;10.77;;
12042;SDS011;6082;49.306;12.862;2023-05-07T09:17:58;17.03;;;11.47;;
12042;SDS011;6082;49.306;12.862;2023-05-07T09:20:26;17.90;;;10.80;;
12042;SDS011;6082;49.306;12.862;2023-05-07T09:22:52;21.20;;;12.53;;
12042;SDS011;6082;49.306;12.862;2023-05-07T09:25:27;20.37;;;12.00;;
12042;SDS011;6082;49.306;12.862;2023-05-07T09:27:54;20.77;;;12.03;;
12042;SDS011;6082;49.306;12.862;2023-05-07T09:30:26;23.50;;;12.27;;
12042;SDS011;6082;49.306;12.862;2023-05-07T09:32:53;20.57;;;12.03;;
12042;SDS011;6082;49.306;12.862;2023-05-07T09:35:31;21.20;;;12.03;;
12042;SDS011;6082;49.306;12.862;2023-05-07T09:38:00;20.00;;;12.47;;
12042;SDS011;6082;49.306;12.862;2023-05-07T09:40:27;18.90;;;11.93;;
12042;SDS011;6082;49.306;12.862;2023-05-07T09:42:54;20.87;;;11.13;;
12042;SDS011;6082;49.306;12.862;2023-05-07T09:45:27;19.97;;;11.87;;
12042;SDS011;6082;49.306;12.862;2023-05-07T09:47:54;18.73;;;11.97;;
12042;SDS011;6082;49.306;12.862;2023-05-07T09:50:22;20.87;;;12.23;;
12042;SDS011;6082;49.306;12.862;2023-05-07T09:52:53;18.97;;;12.43;;
12042;SDS011;6082;49.306;12.862;2023-05-07T09:55:41;18.90;;;11.17;;
12042;SDS011;6082;49.306;12.862;2023-05-07T09:58:07;25.73;;;13.10;;
12042;SDS011;6082;49.306;12.862;2023-05-07T10:00:38;17.60;;;10.83;;
12042;SDS011;6082;49.306;12.862;2023-05-07T10:03:05;19.63;;;11.37;;
12042;SDS011;6082;49.306;12.862;2023-05-07T10:05:32;20.00;;;11.80;;
12042;SDS011;6082;49.306;12.862;2023-05-07T10:07:58;20.30;;;11.90;;
12042;SDS011;6082;49.306;12.862;2023-05-07T10:10:25;17.50;;;11.03;;
12042;SDS011;6082;49.306;12.862;2023-05-07T10:12:51;17.50;;;10.77;;
12042;SDS011;6082;49.306;12.862;2023-05-07T10:15:18;15.37;;;10.20;;
12042;SDS011;6082;49.306;12.862;2023-05-07T10:17:44;19.10;;;11.03;;
12042;SDS011;6082;49.306;12.862;2023-05-07T10:20:11;20.47;;;11.10;;
12042;SDS011;6082;49.306;12.862;2023-05-07T10:22:37;18.80;;;11.30;;
12042;SDS011;6082;49.306;12.862;2023-05-07T10:25:06;18.30;;;11.00;;
12042;SDS011;6082;49.306;12.862;2023-05-07T10:27:36;16.63;;;10.30;;
12042;SDS011;6082;49.306;12.862;2023-05-07T10:32:51;17.77;;;10.47;;
12042;SDS011;6082;49.306;12.862;2023-05-07T10:35:23;18.83;;;10.87;;
12042;SDS011;6082;49.306;12.862;2023-05-07T10:37:50;16.50;;;10.80;;
12042;SDS011;6082;49.306;12.862;2023-05-07T10:40:16;16.90;;;10.40;;
12042;SDS011;6082;49.306;12.862;2023-05-07T10:43:00;18.70;;;11.27;;
12042;SDS011;6082;49.306;12.862;2023-05-07T10:45:27;16.10;;;10.50;;
12042;SDS011;6082;49.306;12.862;2023-05-07T10:50:32;18.60;;;11.67;;
12042;SDS011;6082;49.306;12.862;2023-05-07T10:55:49;17.17;;;10.80;;
12042;SDS011;6082;49.306;12.862;2023-05-07T10:58:25;18.33;;;11.13;;
12042;SDS011;6082;49.306;12.862;2023-05-07T11:00:56;18.70;;;11.03;;
12042;SDS011;6082;49.306;12.862;2023-05-07T11:03:22;20.27;;;11.03;;
12042;SDS011;6082;49.306;12.862;2023-05-07T11:05:55;19.83;;;11.07;;
12042;SDS011;6082;49.306;12.862;2023-05-07T11:08:55;16.03;;;10.93;;
12042;SDS011;6082;49.306;12.862;2023-05-07T11:11:43;15.03;;;10.07;;
12042;SDS011;6082;49.306;12.862;2023-05-07T11:14:06;16.60;;;10.07;;
12042;SDS011;6082;49.306;12.862;2023-05-07T11:16:33;16.50;;;10.23;;
12042;SDS011;6082;49.306;12.862;2023-05-07T11:19:01;14.57;;;10.33;;
12042;SDS011;6082;49.306;12.862;2023-05-07T11:21:38;16.17;;;10.30;;
12042;SDS011;6082;49.306;12.862;2023-05-07T11:24:05;16.30;;;10.13;;
12042;SDS011;6082;49.306;12.862;2023-05-07T11:29:27;14.97;;;9.50;;
12042;SDS011;6082;49.306;12.862;2023-05-07T11:31:54;16.13;;;9.83;;
12042;SDS011;6082;49.306;12.862;2023-05-07T11:34:21;17.40;;;9.80;;
12042;SDS011;6082;49.306;12.862;2023-05-07T11:36:47;16.23;;;10.27;;
12042;SDS011;6082;49.306;12.862;2023-05-07T11:39:30;17.70;;;10.23;;
12042;SDS011;6082;49.306;12.862;2023-05-07T11:42:01;16.17;;;9.60;;
12042;SDS011;6082;49.306;12.862;2023-05-07T11:44:43;15.57;;;10.33;;
12042;SDS011;6082;49.306;12.862;2023-05-07T11:47:11;16.90;;;10.77;;
12042;SDS011;6082;49.306;12.862;2023-05-07T11:49:37;13.67;;;9.73;;
12042;SDS011;6082;49.306;12.862;2023-05-07T11:52:03;15.67;;;10.07;;
12042;SDS011;6082;49.306;12.862;2023-05-07T11:54:36;15.47;;;9.53;;
12042;SDS011;6082;49.306;12.862;2023-05-07T11:57:02;18.43;;;10.47;;
12042;SDS011;6082;49.306;12.862;2023-05-07T11:59:29;16.50;;;9.43;;
12042;SDS011;6082;49.306;12.862;2023-05-07T12:01:58;12.73;;;8.70;;
12042;SDS011;6082;49.306;12.862;2023-05-07T12:04:24;16.10;;;9.97;;
12042;SDS011;6082;49.306;12.862;2023-05-07T12:06:54;13.43;;;9.03;;
12042;SDS011;6082;49.306;12.862;2023-05-07T12:09:20;12.40;;;8.07;;
12042;SDS011;6082;49.306;12.862;2023-05-07T12:11:46;11.57;;;7.70;;
12042;SDS011;6082;49.306;12.862;2023-05-07T12:14:13;12.20;;;7.90;;
12042;SDS011;6082;49.306;12.862;2023-05-07T12:16:42;11.50;;;8.70;;
12042;SDS011;6082;49.306;12.862;2023-05-07T12:19:09;13.97;;;8.87;;
12042;SDS011;6082;49.306;12.862;2023-05-07T12:21:37;13.33;;;8.13;;
12042;SDS011;6082;49.306;12.862;2023-05-07T12:24:04;12.63;;;8.63;;
12042;SDS011;6082;49.306;12.862;2023-05-07T12:26:31;14.03;;;9.37;;
12042;SDS011;6082;49.306;12.862;2023-05-07T12:28:57;12.73;;;8.80;;
12042;SDS011;6082;49.306;12.862;2023-05-07T12:31:25;12.67;;;9.03;;
12042;SDS011;6082;49.306;12.862;2023-05-07T12:33:51;12.17;;;7.97;;
12042;SDS011;6082;49.306;12.862;2023-05-07T12:36:18;12.47;;;9.23;;
12042;SDS011;6082;49.306;12.862;2023-05-07T12:38:49;12.93;;;7.90;;
12042;SDS011;6082;49.306;12.862;2023-05-07T12:41:15;11.10;;;8.20;;
12042;SDS011;6082;49.306;12.862;2023-05-07T12:43:45;12.03;;;8.10;;
12042;SDS011;6082;49.306;12.862;2023-05-07T12:46:12;12.27;;;8.00;;
12042;SDS011;6082;49.306;12.862;2023-05-07T12:48:43;12.47;;;7.87;;
12042;SDS011;6082;49.306;12.862;2023-05-07T12:51:13;11.87;;;8.03;;
12042;SDS011;6082;49.306;12.862;2023-05-07T12:53:40;11.93;;;6.90;;
12042;SDS011;6082;49.306;12.862;2023-05-07T12:56:07;11.27;;;7.60;;
12042;SDS011;6082;49.306;12.862;2023-05-07T12:58:34;11.90;;;7.80;;
12042;SDS011;6082;49.306;12.862;2023-05-07T13:01:01;10.97;;;7.50;;
12042;SDS011;6082;49.306;12.862;2023-05-07T13:03:31;12.57;;;7.80;;
12042;SDS011;6082;49.306;12.862;2023-05-07T13:05:58;13.10;;;8.73;;
12042;SDS011;6082;49.306;12.862;2023-05-07T13:10:51;12.10;;;8.07;;
12042;SDS011;6082;49.306;12.862;2023-05-07T13:13:18;10.87;;;7.43;;
12042;SDS011;6082;49.306;12.862;2023-05-07T13:15:45;11.23;;;7.67;;
12042;SDS011;6082;49.306;12.862;2023-05-07T13:18:12;11.03;;;6.97;;
12042;SDS011;6082;49.306;12.862;2023-05-07T13:20:38;13.00;;;6.93;;
12042;SDS011;6082;49.306;12.862;2023-05-07T13:23:04;9.50;;;6.67;;
12042;SDS011;6082;49.306;12.862;2023-05-07T13:25:30;10.67;;;7.57;;
12042;SDS011;6082;49.306;12.862;2023-05-07T13:27:56;10.17;;;6.90;;
12042;SDS011;6082;49.306;12.862;2023-05-07T13:30:23;8.80;;;6.83;;
12042;SDS011;6082;49.306;12.862;2023-05-07T13:32:49;9.03;;;6.50;;
12042;SDS011;6082;49.306;12.862;2023-05-07T13:35:17;7.97;;;6.23;;
12042;SDS011;6082;49.306;12.862;2023-05-07T13:37:43;8.80;;;6.03;;
12042;SDS011;6082;49.306;12.862;2023-05-07T13:40:09;9.67;;;6.80;;
12042;SDS011;6082;49.306;12.862;2023-05-07T13:42:35;10.30;;;6.83;;
12042;SDS011;6082;49.306;12.862;2023-05-07T13:45:02;12.20;;;7.03;;
12042;SDS011;6082;49.306;12.862;2023-05-07T13:47:30;9.30;;;6.07;;
12042;SDS011;6082;49.306;12.862;2023-05-07T13:49:56;8.60;;;6.27;;
12042;SDS011;6082;49.306;12.862;2023-05-07T13:52:22;9.17;;;5.87;;
12042;SDS011;6082;49.306;12.862;2023-05-07T13:54:48;10.50;;;6.30;;
12042;SDS011;6082;49.306;12.862;2023-05-07T13:57:17;7.50;;;5.50;;
12042;SDS011;6082;49.306;12.862;2023-05-07T13:59:43;6.80;;;5.20;;
12042;SDS011;6082;49.306;12.862;2023-05-07T14:02:09;8.87;;;6.07;;
12042;SDS011;6082;49.306;12.862;2023-05-07T14:04:36;9.00;;;6.43;;
12042;SDS011;6082;49.306;12.862;2023-05-07T14:07:03;8.47;;;6.03;;
12042;SDS011;6082;49.306;12.862;2023-05-07T14:09:29;9.13;;;6.07;;
12042;SDS011;6082;49.306;12.862;2023-05-07T14:11:55;8.93;;;5.77;;
12042;SDS011;6082;49.306;12.862;2023-05-07T14:14:21;9.27;;;6.20;;
12042;SDS011;6082;49.306;12.862;2023-05-07T14:16:47;9.47;;;6.17;;
12042;SDS011;6082;49.306;12.862;2023-05-07T14:19:16;8.57;;;6.03;;
12042;SDS011;6082;49.306;12.862;2023-05-07T14:21:43;10.40;;;5.97;;
12042;SDS011;6082;49.306;12.862;2023-05-07T14:24:09;10.63;;;6.40;;
12042;SDS011;6082;49.306;12.862;2023-05-07T14:26:35;10.27;;;6.73;;
12042;SDS011;6082;49.306;12.862;2023-05-07T14:29:01;8.43;;;5.77;;
12042;SDS011;6082;49.306;12.862;2023-05-07T14:31:27;12.00;;;6.57;;
12042;SDS011;6082;49.306;12.862;2023-05-07T14:33:54;8.10;;;5.93;;
12042;SDS011;6082;49.306;12.862;2023-05-07T14:36:22;8.33;;;5.97;;
12042;SDS011;6082;49.306;12.862;2023-05-07T14:38:51;8.23;;;5.50;;
12042;SDS011;6082;49.306;12.862;2023-05-07T14:41:17;8.37;;;5.63;;
12042;SDS011;6082;49.306;12.862;2023-05-07T14:43:43;8.53;;;5.90;;
12042;SDS011;6082;49.306;12.862;2023-05-07T14:46:15;8.83;;;5.73;;